Terminal Aerodrome Forecast
Issued by NWS Sioux Falls, SD

Home | Current Version | Previous Version | Graphics & Text | Print | Product List | Glossary On
Versions: 1 2 3 4 5 6 7 8 9 10 11 12 13 14 15 16 17 18 19 20
000
FTUS43 KFSD 291731
TAFHON
TAF
KHON 291731Z 2918/3018 34016G25KT P6SM OVC020
     FM292100 35015G22KT P6SM SCT022
     FM300000 01008KT P6SM FEW200
     FM300300 VRB04KT P6SM SCT150
     FM301200 17012KT P6SM SKC=

USA.gov is the U.S. government's official web portal to all federal, state and local government web resources and services.